sensor_id;sensor_type;location;lat;lon;timestamp;P1;durP1;ratioP1;P2;durP2;ratioP2
3815;SDS011;1923;48.154;11.536;2023-01-29T00:00:19;22.03;;;10.40;;
3815;SDS011;1923;48.154;11.536;2023-01-29T00:02:51;19.70;;;9.43;;
3815;SDS011;1923;48.154;11.536;2023-01-29T00:05:20;19.87;;;9.30;;
3815;SDS011;1923;48.154;11.536;2023-01-29T00:08:15;18.77;;;9.00;;
3815;SDS011;1923;48.154;11.536;2023-01-29T00:10:46;21.97;;;10.57;;
3815;SDS011;1923;48.154;11.536;2023-01-29T00:13:15;20.90;;;12.23;;
3815;SDS011;1923;48.154;11.536;2023-01-29T00:15:53;22.90;;;9.70;;
3815;SDS011;1923;48.154;11.536;2023-01-29T00:18:22;20.00;;;10.70;;
3815;SDS011;1923;48.154;11.536;2023-01-29T00:20:50;21.42;;;10.30;;
3815;SDS011;1923;48.154;11.536;2023-01-29T00:23:22;17.73;;;9.40;;
3815;SDS011;1923;48.154;11.536;2023-01-29T00:25:53;19.40;;;9.30;;
3815;SDS011;1923;48.154;11.536;2023-01-29T00:28:27;18.80;;;9.97;;
3815;SDS011;1923;48.154;11.536;2023-01-29T00:30:59;21.80;;;10.40;;
3815;SDS011;1923;48.154;11.536;2023-01-29T00:33:36;24.37;;;11.40;;
3815;SDS011;1923;48.154;11.536;2023-01-29T00:36:08;19.40;;;9.83;;
3815;SDS011;1923;48.154;11.536;2023-01-29T00:38:40;20.87;;;11.73;;
3815;SDS011;1923;48.154;11.536;2023-01-29T00:41:10;19.60;;;11.13;;
3815;SDS011;1923;48.154;11.536;2023-01-29T00:44:03;20.20;;;10.70;;
3815;SDS011;1923;48.154;11.536;2023-01-29T00:46:53;21.27;;;10.33;;
3815;SDS011;1923;48.154;11.536;2023-01-29T00:49:23;17.80;;;10.70;;
3815;SDS011;1923;48.154;11.536;2023-01-29T00:51:52;21.30;;;10.50;;
3815;SDS011;1923;48.154;11.536;2023-01-29T00:54:38;23.67;;;10.77;;
3815;SDS011;1923;48.154;11.536;2023-01-29T00:57:06;19.20;;;9.87;;
3815;SDS011;1923;48.154;11.536;2023-01-29T00:59:40;22.17;;;10.90;;
3815;SDS011;1923;48.154;11.536;2023-01-29T01:02:17;19.53;;;8.80;;
3815;SDS011;1923;48.154;11.536;2023-01-29T01:05:07;20.43;;;10.10;;
3815;SDS011;1923;48.154;11.536;2023-01-29T01:07:39;15.30;;;8.83;;
3815;SDS011;1923;48.154;11.536;2023-01-29T01:10:08;18.10;;;9.40;;
3815;SDS011;1923;48.154;11.536;2023-01-29T01:12:48;20.57;;;10.27;;
3815;SDS011;1923;48.154;11.536;2023-01-29T01:15:20;18.03;;;10.17;;
3815;SDS011;1923;48.154;11.536;2023-01-29T01:17:52;16.93;;;9.33;;
3815;SDS011;1923;48.154;11.536;2023-01-29T01:20:21;19.73;;;9.20;;
3815;SDS011;1923;48.154;11.536;2023-01-29T01:22:49;19.50;;;10.20;;
3815;SDS011;1923;48.154;11.536;2023-01-29T01:25:18;14.90;;;8.73;;
3815;SDS011;1923;48.154;11.536;2023-01-29T01:27:46;17.50;;;8.80;;
3815;SDS011;1923;48.154;11.536;2023-01-29T01:30:18;15.60;;;8.03;;
3815;SDS011;1923;48.154;11.536;2023-01-29T01:32:46;20.43;;;9.90;;
3815;SDS011;1923;48.154;11.536;2023-01-29T01:35:16;18.33;;;8.93;;
3815;SDS011;1923;48.154;11.536;2023-01-29T01:37:45;24.20;;;10.13;;
3815;SDS011;1923;48.154;11.536;2023-01-29T01:40:13;23.00;;;9.70;;
3815;SDS011;1923;48.154;11.536;2023-01-29T01:42:46;15.63;;;8.10;;
3815;SDS011;1923;48.154;11.536;2023-01-29T01:45:19;15.73;;;9.67;;
3815;SDS011;1923;48.154;11.536;2023-01-29T01:47:51;14.63;;;8.63;;
3815;SDS011;1923;48.154;11.536;2023-01-29T01:50:25;15.27;;;8.80;;
3815;SDS011;1923;48.154;11.536;2023-01-29T01:52:57;16.60;;;8.30;;
3815;SDS011;1923;48.154;11.536;2023-01-29T01:55:28;23.97;;;9.77;;
3815;SDS011;1923;48.154;11.536;2023-01-29T01:58:01;15.73;;;8.80;;
3815;SDS011;1923;48.154;11.536;2023-01-29T02:00:32;17.97;;;8.60;;
3815;SDS011;1923;48.154;11.536;2023-01-29T02:03:01;16.63;;;8.53;;
3815;SDS011;1923;48.154;11.536;2023-01-29T02:05:49;16.30;;;8.63;;
3815;SDS011;1923;48.154;11.536;2023-01-29T02:08:38;19.07;;;9.37;;
3815;SDS011;1923;48.154;11.536;2023-01-29T02:11:33;17.20;;;9.30;;
3815;SDS011;1923;48.154;11.536;2023-01-29T02:14:03;13.97;;;7.80;;
3815;SDS011;1923;48.154;11.536;2023-01-29T02:16:32;16.60;;;8.50;;
3815;SDS011;1923;48.154;11.536;2023-01-29T02:19:09;18.67;;;9.50;;
3815;SDS011;1923;48.154;11.536;2023-01-29T02:30:43;13.93;;;7.10;;
3815;SDS011;1923;48.154;11.536;2023-01-29T02:33:18;14.73;;;7.73;;
3815;SDS011;1923;48.154;11.536;2023-01-29T02:35:55;9.50;;;5.50;;
3815;SDS011;1923;48.154;11.536;2023-01-29T02:38:28;11.87;;;6.23;;
3815;SDS011;1923;48.154;11.536;2023-01-29T02:41:02;9.40;;;5.77;;
3815;SDS011;1923;48.154;11.536;2023-01-29T02:43:37;9.50;;;6.10;;
3815;SDS011;1923;48.154;11.536;2023-01-29T02:46:13;11.60;;;7.60;;
3815;SDS011;1923;48.154;11.536;2023-01-29T02:48:47;13.37;;;6.73;;
3815;SDS011;1923;48.154;11.536;2023-01-29T02:51:23;11.27;;;6.33;;
3815;SDS011;1923;48.154;11.536;2023-01-29T02:53:58;9.23;;;6.33;;
3815;SDS011;1923;48.154;11.536;2023-01-29T02:56:32;9.00;;;5.40;;
3815;SDS011;1923;48.154;11.536;2023-01-29T02:59:06;12.13;;;6.73;;
3815;SDS011;1923;48.154;11.536;2023-01-29T03:01:37;8.33;;;5.63;;
3815;SDS011;1923;48.154;11.536;2023-01-29T03:04:11;8.60;;;5.10;;
3815;SDS011;1923;48.154;11.536;2023-01-29T03:06:42;12.20;;;5.90;;
3815;SDS011;1923;48.154;11.536;2023-01-29T03:09:15;6.70;;;4.73;;
3815;SDS011;1923;48.154;11.536;2023-01-29T03:11:51;9.40;;;6.13;;
3815;SDS011;1923;48.154;11.536;2023-01-29T03:14:29;9.47;;;5.30;;
3815;SDS011;1923;48.154;11.536;2023-01-29T03:17:27;10.13;;;5.80;;
3815;SDS011;1923;48.154;11.536;2023-01-29T03:20:25;10.30;;;6.33;;
3815;SDS011;1923;48.154;11.536;2023-01-29T03:22:59;8.17;;;5.47;;
3815;SDS011;1923;48.154;11.536;2023-01-29T03:25:31;9.10;;;5.50;;
3815;SDS011;1923;48.154;11.536;2023-01-29T03:28:20;8.10;;;6.30;;
3815;SDS011;1923;48.154;11.536;2023-01-29T03:31:08;11.93;;;6.70;;
3815;SDS011;1923;48.154;11.536;2023-01-29T03:33:57;9.33;;;6.13;;
3815;SDS011;1923;48.154;11.536;2023-01-29T03:36:31;11.00;;;6.53;;
3815;SDS011;1923;48.154;11.536;2023-01-29T03:39:05;8.63;;;5.60;;
3815;SDS011;1923;48.154;11.536;2023-01-29T03:41:34;10.60;;;6.10;;
3815;SDS011;1923;48.154;11.536;2023-01-29T03:44:08;12.00;;;6.80;;
3815;SDS011;1923;48.154;11.536;2023-01-29T03:46:43;10.73;;;6.63;;
3815;SDS011;1923;48.154;11.536;2023-01-29T03:49:20;9.83;;;5.80;;
3815;SDS011;1923;48.154;11.536;2023-01-29T03:51:59;12.80;;;6.77;;
3815;SDS011;1923;48.154;11.536;2023-01-29T03:54:43;10.30;;;6.27;;
3815;SDS011;1923;48.154;11.536;2023-01-29T03:57:22;11.90;;;6.80;;
3815;SDS011;1923;48.154;11.536;2023-01-29T04:00:00;13.27;;;6.87;;
3815;SDS011;1923;48.154;11.536;2023-01-29T04:02:33;11.67;;;6.87;;
3815;SDS011;1923;48.154;11.536;2023-01-29T04:05:06;11.27;;;6.67;;
3815;SDS011;1923;48.154;11.536;2023-01-29T04:07:38;16.00;;;7.27;;
3815;SDS011;1923;48.154;11.536;2023-01-29T04:10:08;11.07;;;6.33;;
3815;SDS011;1923;48.154;11.536;2023-01-29T04:12:40;15.20;;;7.10;;
3815;SDS011;1923;48.154;11.536;2023-01-29T04:15:13;11.40;;;6.47;;
3815;SDS011;1923;48.154;11.536;2023-01-29T04:17:46;14.33;;;7.27;;
3815;SDS011;1923;48.154;11.536;2023-01-29T04:20:18;11.60;;;6.50;;
3815;SDS011;1923;48.154;11.536;2023-01-29T04:22:47;10.50;;;6.50;;
3815;SDS011;1923;48.154;11.536;2023-01-29T04:25:17;14.43;;;7.87;;
3815;SDS011;1923;48.154;11.536;2023-01-29T04:27:55;11.40;;;5.50;;
3815;SDS011;1923;48.154;11.536;2023-01-29T04:30:31;11.83;;;6.60;;
3815;SDS011;1923;48.154;11.536;2023-01-29T04:33:13;10.90;;;6.27;;
3815;SDS011;1923;48.154;11.536;2023-01-29T04:35:55;10.50;;;6.60;;
3815;SDS011;1923;48.154;11.536;2023-01-29T04:38:44;13.17;;;7.90;;
3815;SDS011;1923;48.154;11.536;2023-01-29T04:41:20;12.53;;;7.93;;
3815;SDS011;1923;48.154;11.536;2023-01-29T04:43:54;14.40;;;8.00;;
3815;SDS011;1923;48.154;11.536;2023-01-29T04:46:31;12.20;;;7.40;;
3815;SDS011;1923;48.154;11.536;2023-01-29T04:49:08;10.70;;;6.00;;
3815;SDS011;1923;48.154;11.536;2023-01-29T04:51:46;10.87;;;6.90;;
3815;SDS011;1923;48.154;11.536;2023-01-29T04:54:20;11.70;;;6.90;;
3815;SDS011;1923;48.154;11.536;2023-01-29T04:56:57;11.90;;;6.87;;
3815;SDS011;1923;48.154;11.536;2023-01-29T04:59:34;11.63;;;6.57;;
3815;SDS011;1923;48.154;11.536;2023-01-29T05:02:05;14.17;;;6.67;;
3815;SDS011;1923;48.154;11.536;2023-01-29T05:04:38;12.90;;;7.20;;
3815;SDS011;1923;48.154;11.536;2023-01-29T05:07:11;18.77;;;7.90;;
3815;SDS011;1923;48.154;11.536;2023-01-29T05:09:41;15.10;;;8.77;;
3815;SDS011;1923;48.154;11.536;2023-01-29T05:12:12;13.80;;;7.83;;
3815;SDS011;1923;48.154;11.536;2023-01-29T05:14:43;12.57;;;7.10;;
3815;SDS011;1923;48.154;11.536;2023-01-29T05:17:14;13.47;;;7.60;;
3815;SDS011;1923;48.154;11.536;2023-01-29T05:19:46;14.73;;;7.33;;
3815;SDS011;1923;48.154;11.536;2023-01-29T05:22:15;13.30;;;7.27;;
3815;SDS011;1923;48.154;11.536;2023-01-29T05:24:47;16.17;;;8.47;;
3815;SDS011;1923;48.154;11.536;2023-01-29T05:27:17;14.57;;;8.93;;
3815;SDS011;1923;48.154;11.536;2023-01-29T05:30:05;15.63;;;8.20;;
3815;SDS011;1923;48.154;11.536;2023-01-29T05:32:35;13.73;;;8.03;;
3815;SDS011;1923;48.154;11.536;2023-01-29T05:35:06;12.87;;;8.20;;
3815;SDS011;1923;48.154;11.536;2023-01-29T05:37:34;12.03;;;7.40;;
3815;SDS011;1923;48.154;11.536;2023-01-29T05:40:03;14.20;;;8.17;;
3815;SDS011;1923;48.154;11.536;2023-01-29T05:42:34;13.97;;;7.70;;
3815;SDS011;1923;48.154;11.536;2023-01-29T05:45:02;11.73;;;6.80;;
3815;SDS011;1923;48.154;11.536;2023-01-29T05:47:30;11.47;;;7.07;;
3815;SDS011;1923;48.154;11.536;2023-01-29T05:49:58;15.63;;;8.07;;
3815;SDS011;1923;48.154;11.536;2023-01-29T05:52:28;14.30;;;7.70;;
3815;SDS011;1923;48.154;11.536;2023-01-29T05:54:56;14.80;;;7.73;;
3815;SDS011;1923;48.154;11.536;2023-01-29T05:57:23;12.53;;;6.90;;
3815;SDS011;1923;48.154;11.536;2023-01-29T05:59:51;13.90;;;7.80;;
3815;SDS011;1923;48.154;11.536;2023-01-29T06:02:19;12.10;;;7.53;;
3815;SDS011;1923;48.154;11.536;2023-01-29T06:04:49;14.87;;;8.80;;
3815;SDS011;1923;48.154;11.536;2023-01-29T06:07:18;10.10;;;6.00;;
3815;SDS011;1923;48.154;11.536;2023-01-29T06:09:47;13.00;;;7.20;;
3815;SDS011;1923;48.154;11.536;2023-01-29T06:12:15;11.50;;;7.63;;
3815;SDS011;1923;48.154;11.536;2023-01-29T06:14:43;11.10;;;6.70;;
3815;SDS011;1923;48.154;11.536;2023-01-29T06:17:11;12.10;;;7.60;;
3815;SDS011;1923;48.154;11.536;2023-01-29T06:19:39;13.47;;;7.50;;
3815;SDS011;1923;48.154;11.536;2023-01-29T06:22:07;12.10;;;6.90;;
3815;SDS011;1923;48.154;11.536;2023-01-29T06:24:35;13.70;;;7.97;;
3815;SDS011;1923;48.154;11.536;2023-01-29T06:27:04;11.30;;;7.17;;
3815;SDS011;1923;48.154;11.536;2023-01-29T06:29:32;13.63;;;6.87;;
3815;SDS011;1923;48.154;11.536;2023-01-29T06:32:01;12.73;;;7.77;;
3815;SDS011;1923;48.154;11.536;2023-01-29T06:34:30;13.17;;;7.03;;
3815;SDS011;1923;48.154;11.536;2023-01-29T06:36:58;11.13;;;6.37;;
3815;SDS011;1923;48.154;11.536;2023-01-29T06:39:26;10.13;;;6.40;;
3815;SDS011;1923;48.154;11.536;2023-01-29T06:41:54;14.30;;;6.57;;
3815;SDS011;1923;48.154;11.536;2023-01-29T06:44:23;14.90;;;7.83;;
3815;SDS011;1923;48.154;11.536;2023-01-29T06:46:52;12.40;;;5.90;;
3815;SDS011;1923;48.154;11.536;2023-01-29T06:49:20;10.50;;;6.03;;
3815;SDS011;1923;48.154;11.536;2023-01-29T06:51:48;9.77;;;6.77;;
3815;SDS011;1923;48.154;11.536;2023-01-29T06:54:16;15.37;;;8.63;;
3815;SDS011;1923;48.154;11.536;2023-01-29T06:56:44;18.00;;;7.77;;
3815;SDS011;1923;48.154;11.536;2023-01-29T06:59:12;12.20;;;7.60;;
3815;SDS011;1923;48.154;11.536;2023-01-29T07:01:42;11.23;;;6.73;;
3815;SDS011;1923;48.154;11.536;2023-01-29T07:04:10;13.20;;;7.43;;
3815;SDS011;1923;48.154;11.536;2023-01-29T07:06:38;12.30;;;7.13;;
3815;SDS011;1923;48.154;11.536;2023-01-29T07:09:06;14.00;;;7.63;;
3815;SDS011;1923;48.154;11.536;2023-01-29T07:11:34;14.60;;;8.80;;
3815;SDS011;1923;48.154;11.536;2023-01-29T07:14:03;11.73;;;6.37;;
3815;SDS011;1923;48.154;11.536;2023-01-29T07:16:31;11.80;;;6.60;;
3815;SDS011;1923;48.154;11.536;2023-01-29T07:19:01;11.30;;;6.43;;
3815;SDS011;1923;48.154;11.536;2023-01-29T07:21:29;11.77;;;6.67;;
3815;SDS011;1923;48.154;11.536;2023-01-29T07:23:57;11.80;;;6.30;;
3815;SDS011;1923;48.154;11.536;2023-01-29T07:26:25;15.60;;;8.07;;
3815;SDS011;1923;48.154;11.536;2023-01-29T07:28:54;13.53;;;6.60;;
3815;SDS011;1923;48.154;11.536;2023-01-29T07:31:22;15.80;;;7.43;;
3815;SDS011;1923;48.154;11.536;2023-01-29T07:33:50;13.43;;;7.37;;
3815;SDS011;1923;48.154;11.536;2023-01-29T07:36:19;13.67;;;7.93;;
3815;SDS011;1923;48.154;11.536;2023-01-29T07:38:47;10.70;;;6.50;;
3815;SDS011;1923;48.154;11.536;2023-01-29T07:41:16;12.07;;;6.73;;
3815;SDS011;1923;48.154;11.536;2023-01-29T07:43:44;13.03;;;7.40;;
3815;SDS011;1923;48.154;11.536;2023-01-29T07:46:12;12.33;;;6.70;;
3815;SDS011;1923;48.154;11.536;2023-01-29T07:48:40;15.20;;;7.27;;
3815;SDS011;1923;48.154;11.536;2023-01-29T07:51:08;13.10;;;7.23;;
3815;SDS011;1923;48.154;11.536;2023-01-29T07:53:38;11.83;;;7.50;;
3815;SDS011;1923;48.154;11.536;2023-01-29T07:56:06;12.23;;;7.20;;
3815;SDS011;1923;48.154;11.536;2023-01-29T07:58:34;14.90;;;7.10;;
3815;SDS011;1923;48.154;11.536;2023-01-29T08:01:04;13.50;;;7.00;;
3815;SDS011;1923;48.154;11.536;2023-01-29T08:03:33;13.80;;;6.67;;
3815;SDS011;1923;48.154;11.536;2023-01-29T08:06:01;11.70;;;7.60;;
3815;SDS011;1923;48.154;11.536;2023-01-29T08:08:30;17.63;;;7.90;;
3815;SDS011;1923;48.154;11.536;2023-01-29T08:11:00;12.37;;;6.23;;
3815;SDS011;1923;48.154;11.536;2023-01-29T08:13:31;13.67;;;6.93;;
3815;SDS011;1923;48.154;11.536;2023-01-29T08:15:59;13.23;;;7.43;;
3815;SDS011;1923;48.154;11.536;2023-01-29T08:18:28;12.10;;;6.93;;
3815;SDS011;1923;48.154;11.536;2023-01-29T08:20:58;11.67;;;6.40;;
3815;SDS011;1923;48.154;11.536;2023-01-29T08:23:27;13.90;;;6.70;;
3815;SDS011;1923;48.154;11.536;2023-01-29T08:25:55;14.50;;;7.47;;
3815;SDS011;1923;48.154;11.536;2023-01-29T08:28:24;14.77;;;7.23;;
3815;SDS011;1923;48.154;11.536;2023-01-29T08:30:53;11.87;;;6.50;;
3815;SDS011;1923;48.154;11.536;2023-01-29T08:33:21;10.13;;;6.93;;
3815;SDS011;1923;48.154;11.536;2023-01-29T08:36:04;11.57;;;6.20;;
3815;SDS011;1923;48.154;11.536;2023-01-29T08:38:33;8.17;;;5.50;;
3815;SDS011;1923;48.154;11.536;2023-01-29T08:41:01;10.03;;;5.83;;
3815;SDS011;1923;48.154;11.536;2023-01-29T08:43:30;10.03;;;5.83;;
3815;SDS011;1923;48.154;11.536;2023-01-29T08:45:58;11.50;;;5.87;;
3815;SDS011;1923;48.154;11.536;2023-01-29T08:48:27;10.73;;;5.93;;
3815;SDS011;1923;48.154;11.536;2023-01-29T08:50:56;12.37;;;6.33;;
3815;SDS011;1923;48.154;11.536;2023-01-29T08:53:24;10.10;;;5.93;;
3815;SDS011;1923;48.154;11.536;2023-01-29T08:55:52;12.20;;;6.90;;
3815;SDS011;1923;48.154;11.536;2023-01-29T08:58:20;9.20;;;5.33;;
3815;SDS011;1923;48.154;11.536;2023-01-29T09:00:50;11.03;;;5.77;;
3815;SDS011;1923;48.154;11.536;2023-01-29T09:03:18;9.63;;;5.87;;
3815;SDS011;1923;48.154;11.536;2023-01-29T09:05:46;10.60;;;6.50;;
3815;SDS011;1923;48.154;11.536;2023-01-29T09:08:14;9.43;;;5.90;;
3815;SDS011;1923;48.154;11.536;2023-01-29T09:10:42;12.10;;;6.00;;
3815;SDS011;1923;48.154;11.536;2023-01-29T09:13:10;11.80;;;6.17;;
3815;SDS011;1923;48.154;11.536;2023-01-29T09:15:38;11.83;;;6.70;;
3815;SDS011;1923;48.154;11.536;2023-01-29T09:18:08;12.03;;;6.40;;
3815;SDS011;1923;48.154;11.536;2023-01-29T09:20:36;10.37;;;5.97;;
3815;SDS011;1923;48.154;11.536;2023-01-29T09:23:04;12.20;;;6.70;;
3815;SDS011;1923;48.154;11.536;2023-01-29T09:25:32;13.00;;;7.40;;
3815;SDS011;1923;48.154;11.536;2023-01-29T09:28:00;11.33;;;6.20;;
3815;SDS011;1923;48.154;11.536;2023-01-29T09:30:28;13.60;;;7.43;;
3815;SDS011;1923;48.154;11.536;2023-01-29T09:32:59;13.37;;;7.40;;
3815;SDS011;1923;48.154;11.536;2023-01-29T09:35:28;14.40;;;7.60;;
3815;SDS011;1923;48.154;11.536;2023-01-29T09:37:56;14.67;;;7.80;;
3815;SDS011;1923;48.154;11.536;2023-01-29T09:40:25;12.73;;;7.73;;
3815;SDS011;1923;48.154;11.536;2023-01-29T09:42:59;13.33;;;7.13;;
3815;SDS011;1923;48.154;11.536;2023-01-29T09:45:30;14.77;;;8.10;;
3815;SDS011;1923;48.154;11.536;2023-01-29T09:47:59;16.10;;;7.70;;
3815;SDS011;1923;48.154;11.536;2023-01-29T09:50:33;14.23;;;7.50;;
3815;SDS011;1923;48.154;11.536;2023-01-29T09:53:09;12.97;;;7.07;;
3815;SDS011;1923;48.154;11.536;2023-01-29T09:55:44;13.33;;;8.03;;
3815;SDS011;1923;48.154;11.536;2023-01-29T09:58:17;14.00;;;8.40;;
3815;SDS011;1923;48.154;11.536;2023-01-29T10:00:51;13.97;;;7.50;;
3815;SDS011;1923;48.154;11.536;2023-01-29T10:03:30;14.27;;;7.40;;
3815;SDS011;1923;48.154;11.536;2023-01-29T10:06:24;12.03;;;6.57;;
3815;SDS011;1923;48.154;11.536;2023-01-29T10:09:13;11.90;;;7.00;;
3815;SDS011;1923;48.154;11.536;2023-01-29T10:12:09;13.10;;;7.07;;
3815;SDS011;1923;48.154;11.536;2023-01-29T10:14:48;13.93;;;7.10;;
3815;SDS011;1923;48.154;11.536;2023-01-29T10:17:26;13.50;;;7.40;;
3815;SDS011;1923;48.154;11.536;2023-01-29T10:20:27;13.27;;;7.53;;
3815;SDS011;1923;48.154;11.536;2023-01-29T10:23:13;11.80;;;7.50;;
3815;SDS011;1923;48.154;11.536;2023-01-29T10:25:45;12.23;;;7.47;;
3815;SDS011;1923;48.154;11.536;2023-01-29T10:28:15;14.90;;;7.60;;
3815;SDS011;1923;48.154;11.536;2023-01-29T10:30:46;12.60;;;7.30;;
3815;SDS011;1923;48.154;11.536;2023-01-29T10:33:17;14.27;;;8.10;;
3815;SDS011;1923;48.154;11.536;2023-01-29T10:35:52;13.13;;;7.10;;
3815;SDS011;1923;48.154;11.536;2023-01-29T10:38:29;13.03;;;7.03;;
3815;SDS011;1923;48.154;11.536;2023-01-29T10:41:09;13.27;;;7.80;;
3815;SDS011;1923;48.154;11.536;2023-01-29T10:47:00;14.10;;;7.30;;
3815;SDS011;1923;48.154;11.536;2023-01-29T10:49:48;12.57;;;7.77;;
3815;SDS011;1923;48.154;11.536;2023-01-29T10:52:34;10.60;;;6.35;;
3815;SDS011;1923;48.154;11.536;2023-01-29T10:55:17;14.83;;;7.10;;
3815;SDS011;1923;48.154;11.536;2023-01-29T10:57:59;12.63;;;7.20;;
3815;SDS011;1923;48.154;11.536;2023-01-29T11:00:34;15.03;;;8.30;;
3815;SDS011;1923;48.154;11.536;2023-01-29T11:03:13;11.50;;;7.57;;
3815;SDS011;1923;48.154;11.536;2023-01-29T11:05:54;13.37;;;7.40;;
3815;SDS011;1923;48.154;11.536;2023-01-29T11:08:28;14.83;;;7.00;;
3815;SDS011;1923;48.154;11.536;2023-01-29T11:11:04;10.40;;;6.60;;
3815;SDS011;1923;48.154;11.536;2023-01-29T11:13:36;13.93;;;7.70;;
3815;SDS011;1923;48.154;11.536;2023-01-29T11:16:07;12.85;;;7.00;;
3815;SDS011;1923;48.154;11.536;2023-01-29T11:18:55;10.93;;;6.67;;
3815;SDS011;1923;48.154;11.536;2023-01-29T11:21:25;10.90;;;6.93;;
3815;SDS011;1923;48.154;11.536;2023-01-29T11:24:04;13.40;;;7.17;;
3815;SDS011;1923;48.154;11.536;2023-01-29T11:26:36;15.70;;;8.60;;
3815;SDS011;1923;48.154;11.536;2023-01-29T11:31:58;11.50;;;7.93;;
3815;SDS011;1923;48.154;11.536;2023-01-29T11:34:30;16.20;;;9.17;;
3815;SDS011;1923;48.154;11.536;2023-01-29T11:36:59;12.10;;;7.87;;
3815;SDS011;1923;48.154;11.536;2023-01-29T11:39:29;12.93;;;7.27;;
3815;SDS011;1923;48.154;11.536;2023-01-29T11:41:59;14.47;;;7.47;;
3815;SDS011;1923;48.154;11.536;2023-01-29T11:44:34;12.27;;;7.27;;
3815;SDS011;1923;48.154;11.536;2023-01-29T11:47:09;11.60;;;7.33;;
3815;SDS011;1923;48.154;11.536;2023-01-29T11:49:40;10.70;;;7.30;;
3815;SDS011;1923;48.154;11.536;2023-01-29T11:52:12;13.40;;;7.60;;
3815;SDS011;1923;48.154;11.536;2023-01-29T11:54:44;11.93;;;7.40;;
3815;SDS011;1923;48.154;11.536;2023-01-29T11:57:20;10.60;;;7.10;;
3815;SDS011;1923;48.154;11.536;2023-01-29T11:59:53;15.37;;;8.30;;
3815;SDS011;1923;48.154;11.536;2023-01-29T12:02:24;13.40;;;8.07;;
3815;SDS011;1923;48.154;11.536;2023-01-29T12:04:58;16.17;;;8.87;;
3815;SDS011;1923;48.154;11.536;2023-01-29T12:07:30;13.20;;;7.43;;
3815;SDS011;1923;48.154;11.536;2023-01-29T12:09:59;11.03;;;7.90;;
3815;SDS011;1923;48.154;11.536;2023-01-29T12:12:32;11.70;;;7.40;;
3815;SDS011;1923;48.154;11.536;2023-01-29T12:15:20;13.57;;;7.53;;
3815;SDS011;1923;48.154;11.536;2023-01-29T12:17:52;9.53;;;6.90;;
3815;SDS011;1923;48.154;11.536;2023-01-29T12:20:29;14.80;;;8.03;;
3815;SDS011;1923;48.154;11.536;2023-01-29T12:23:03;14.40;;;7.70;;
3815;SDS011;1923;48.154;11.536;2023-01-29T12:25:42;14.40;;;8.50;;
3815;SDS011;1923;48.154;11.536;2023-01-29T12:28:28;14.77;;;8.53;;
3815;SDS011;1923;48.154;11.536;2023-01-29T12:31:09;13.20;;;8.30;;
3815;SDS011;1923;48.154;11.536;2023-01-29T12:33:45;13.77;;;7.80;;
3815;SDS011;1923;48.154;11.536;2023-01-29T12:36:19;15.23;;;8.73;;
3815;SDS011;1923;48.154;11.536;2023-01-29T12:38:51;14.00;;;8.30;;
3815;SDS011;1923;48.154;11.536;2023-01-29T12:41:27;14.83;;;8.20;;
3815;SDS011;1923;48.154;11.536;2023-01-29T12:44:03;15.17;;;9.07;;
3815;SDS011;1923;48.154;11.536;2023-01-29T12:46:37;16.10;;;9.57;;
3815;SDS011;1923;48.154;11.536;2023-01-29T12:49:10;14.77;;;8.63;;
3815;SDS011;1923;48.154;11.536;2023-01-29T12:51:44;14.07;;;9.03;;
3815;SDS011;1923;48.154;11.536;2023-01-29T12:54:20;15.20;;;8.83;;
3815;SDS011;1923;48.154;11.536;2023-01-29T12:56:54;15.90;;;9.70;;
3815;SDS011;1923;48.154;11.536;2023-01-29T12:59:29;14.00;;;8.00;;
3815;SDS011;1923;48.154;11.536;2023-01-29T13:02:04;17.40;;;8.70;;
3815;SDS011;1923;48.154;11.536;2023-01-29T13:04:43;15.60;;;8.93;;
3815;SDS011;1923;48.154;11.536;2023-01-29T13:07:14;18.03;;;8.90;;
3815;SDS011;1923;48.154;11.536;2023-01-29T13:09:46;17.20;;;7.90;;
3815;SDS011;1923;48.154;11.536;2023-01-29T13:12:18;14.17;;;8.80;;
3815;SDS011;1923;48.154;11.536;2023-01-29T13:14:50;13.93;;;8.33;;
3815;SDS011;1923;48.154;11.536;2023-01-29T13:17:23;14.93;;;9.60;;
3815;SDS011;1923;48.154;11.536;2023-01-29T13:19:56;15.27;;;8.53;;
3815;SDS011;1923;48.154;11.536;2023-01-29T13:22:29;13.67;;;8.63;;
3815;SDS011;1923;48.154;11.536;2023-01-29T13:25:01;16.87;;;9.47;;
3815;SDS011;1923;48.154;11.536;2023-01-29T13:27:32;16.15;;;8.93;;
3815;SDS011;1923;48.154;11.536;2023-01-29T13:30:03;13.70;;;7.00;;
3815;SDS011;1923;48.154;11.536;2023-01-29T13:32:33;16.23;;;8.03;;
3815;SDS011;1923;48.154;11.536;2023-01-29T13:35:02;16.57;;;8.90;;
3815;SDS011;1923;48.154;11.536;2023-01-29T13:37:39;10.30;;;7.80;;
3815;SDS011;1923;48.154;11.536;2023-01-29T13:40:18;16.80;;;8.10;;
3815;SDS011;1923;48.154;11.536;2023-01-29T13:42:50;17.35;;;9.40;;
3815;SDS011;1923;48.154;11.536;2023-01-29T13:45:21;15.70;;;9.07;;
3815;SDS011;1923;48.154;11.536;2023-01-29T13:47:51;11.40;;;7.95;;
3815;SDS011;1923;48.154;11.536;2023-01-29T13:50:24;18.98;;;8.45;;
3815;SDS011;1923;48.154;11.536;2023-01-29T13:53:02;14.00;;;7.90;;
3815;SDS011;1923;48.154;11.536;2023-01-29T13:55:33;15.15;;;8.00;;
3815;SDS011;1923;48.154;11.536;2023-01-29T13:58:03;17.43;;;8.30;;
3815;SDS011;1923;48.154;11.536;2023-01-29T14:06:49;14.00;;;8.73;;
3815;SDS011;1923;48.154;11.536;2023-01-29T14:09:31;13.60;;;7.10;;
3815;SDS011;1923;48.154;11.536;2023-01-29T14:12:32;16.37;;;7.20;;
3815;SDS011;1923;48.154;11.536;2023-01-29T14:15:14;16.20;;;8.13;;
3815;SDS011;1923;48.154;11.536;2023-01-29T14:18:01;16.13;;;8.80;;
3815;SDS011;1923;48.154;11.536;2023-01-29T14:21:00;15.15;;;8.07;;
3815;SDS011;1923;48.154;11.536;2023-01-29T14:23:35;18.70;;;8.17;;
3815;SDS011;1923;48.154;11.536;2023-01-29T14:26:19;12.20;;;7.20;;
3815;SDS011;1923;48.154;11.536;2023-01-29T14:28:55;12.63;;;7.67;;
3815;SDS011;1923;48.154;11.536;2023-01-29T14:31:29;15.07;;;7.87;;
3815;SDS011;1923;48.154;11.536;2023-01-29T14:34:05;12.80;;;6.90;;
3815;SDS011;1923;48.154;11.536;2023-01-29T14:36:41;14.53;;;7.43;;
3815;SDS011;1923;48.154;11.536;2023-01-29T14:39:18;12.10;;;6.20;;
3815;SDS011;1923;48.154;11.536;2023-01-29T14:41:50;11.52;;;6.32;;
3815;SDS011;1923;48.154;11.536;2023-01-29T14:53:27;16.23;;;8.80;;
3815;SDS011;1923;48.154;11.536;2023-01-29T14:56:00;10.83;;;7.77;;
3815;SDS011;1923;48.154;11.536;2023-01-29T14:58:33;17.87;;;8.40;;
3815;SDS011;1923;48.154;11.536;2023-01-29T15:01:05;13.77;;;7.47;;
3815;SDS011;1923;48.154;11.536;2023-01-29T15:03:42;15.73;;;9.07;;
3815;SDS011;1923;48.154;11.536;2023-01-29T15:06:16;15.15;;;7.72;;
3815;SDS011;1923;48.154;11.536;2023-01-29T15:08:52;15.50;;;8.07;;
3815;SDS011;1923;48.154;11.536;2023-01-29T15:11:29;12.60;;;8.10;;
3815;SDS011;1923;48.154;11.536;2023-01-29T15:14:07;10.00;;;6.57;;
3815;SDS011;1923;48.154;11.536;2023-01-29T15:16:47;11.65;;;7.38;;
3815;SDS011;1923;48.154;11.536;2023-01-29T15:19:24;10.97;;;7.17;;
3815;SDS011;1923;48.154;11.536;2023-01-29T15:22:05;11.90;;;7.33;;
3815;SDS011;1923;48.154;11.536;2023-01-29T15:24:35;12.13;;;7.10;;
3815;SDS011;1923;48.154;11.536;2023-01-29T15:27:05;11.60;;;7.57;;
3815;SDS011;1923;48.154;11.536;2023-01-29T15:29:36;12.97;;;6.90;;
3815;SDS011;1923;48.154;11.536;2023-01-29T15:32:04;14.40;;;8.10;;
3815;SDS011;1923;48.154;11.536;2023-01-29T15:34:33;18.80;;;8.87;;
3815;SDS011;1923;48.154;11.536;2023-01-29T15:37:02;13.80;;;8.00;;
3815;SDS011;1923;48.154;11.536;2023-01-29T15:39:31;13.10;;;7.80;;
3815;SDS011;1923;48.154;11.536;2023-01-29T15:42:11;12.87;;;8.10;;
3815;SDS011;1923;48.154;11.536;2023-01-29T15:44:46;8.90;;;6.43;;
3815;SDS011;1923;48.154;11.536;2023-01-29T15:47:14;13.50;;;7.87;;
3815;SDS011;1923;48.154;11.536;2023-01-29T15:49:44;14.87;;;9.10;;
3815;SDS011;1923;48.154;11.536;2023-01-29T15:52:15;13.60;;;8.60;;
3815;SDS011;1923;48.154;11.536;2023-01-29T15:54:47;14.80;;;7.80;;